createdAt,value
2018-09-14T00:00:18.151Z,8.17
2018-09-14T00:01:21.663Z,7.30
2018-09-14T00:02:25.549Z,8.13
2018-09-14T00:03:29.217Z,7.90
2018-09-14T00:04:32.733Z,10.17
2018-09-14T00:05:36.509Z,9.63
2018-09-14T00:06:40.081Z,11.57
2018-09-14T00:07:43.607Z,10.23
2018-09-14T00:08:47.632Z,15.70
2018-09-14T00:09:51.300Z,7.33
2018-09-14T00:10:54.854Z,8.80
2018-09-14T00:11:59.126Z,10.63
2018-09-14T00:13:02.866Z,10.03
2018-09-14T00:14:06.501Z,9.73
2018-09-14T00:15:10.788Z,9.87
2018-09-14T00:16:14.442Z,8.83
2018-09-14T00:17:17.982Z,8.43
2018-09-14T00:18:21.565Z,15.73
2018-09-14T00:19:25.070Z,9.47
2018-09-14T00:20:28.593Z,9.97
2018-09-14T00:21:32.423Z,10.67
2018-09-14T00:22:35.965Z,10.70
2018-09-14T00:23:39.474Z,11.13
2018-09-14T00:24:43.563Z,11.28
2018-09-14T00:25:47.348Z,7.57
2018-09-14T00:26:50.876Z,11.63
2018-09-14T00:27:54.905Z,9.53
2018-09-14T00:28:58.413Z,8.43
2018-09-14T00:30:03.288Z,7.90
2018-09-14T00:31:06.853Z,10.47
2018-09-14T00:32:10.471Z,8.83
2018-09-14T00:33:13.962Z,10.30
2018-09-14T00:34:17.543Z,9.73
2018-09-14T00:35:21.057Z,9.47
2018-09-14T00:36:25.202Z,9.80
2018-09-14T00:37:29.052Z,10.40
2018-09-14T00:38:33.142Z,10.37
2018-09-14T00:39:36.656Z,9.67
2018-09-14T00:40:41.200Z,8.93
2018-09-14T00:41:44.768Z,10.50
2018-09-14T00:42:48.411Z,8.87
2018-09-14T00:43:51.933Z,10.17
2018-09-14T00:44:55.526Z,11.00
2018-09-14T00:45:59.019Z,9.33
2018-09-14T00:47:02.530Z,14.87
2018-09-14T00:48:08.113Z,13.90
2018-09-14T00:49:11.879Z,8.07
2018-09-14T00:50:15.428Z,12.47
2018-09-14T00:51:19.124Z,8.53
2018-09-14T00:52:23.378Z,8.07
2018-09-14T00:53:27.074Z,12.83
2018-09-14T00:54:30.570Z,11.67
2018-09-14T00:55:34.100Z,12.20
2018-09-14T00:56:37.586Z,8.57
2018-09-14T00:57:41.273Z,9.53
2018-09-14T00:58:44.773Z,11.60
2018-09-14T00:59:48.368Z,12.30
2018-09-14T01:00:52.245Z,11.30
2018-09-14T01:01:56.072Z,14.60
2018-09-14T01:02:59.579Z,10.53
2018-09-14T01:04:03.090Z,10.10
2018-09-14T01:05:07.906Z,8.77
2018-09-14T01:06:12.479Z,11.90
2018-09-14T01:07:17.717Z,12.07
2018-09-14T01:08:21.258Z,13.07
2018-09-14T01:09:27.429Z,13.87
2018-09-14T01:10:31.257Z,14.33
2018-09-14T01:11:34.804Z,12.83
2018-09-14T01:12:38.297Z,9.83
2018-09-14T01:13:42.269Z,12.67
2018-09-14T01:14:45.837Z,10.77
2018-09-14T01:15:50.175Z,9.77
2018-09-14T01:16:56.141Z,10.37
2018-09-14T01:18:00.089Z,13.40
2018-09-14T01:19:04.879Z,12.60
2018-09-14T01:20:09.464Z,12.60
2018-09-14T01:21:12.921Z,11.77
2018-09-14T01:22:17.357Z,12.77
2018-09-14T01:23:21.217Z,13.63
2018-09-14T01:24:25.356Z,9.80
2018-09-14T01:25:28.827Z,12.20
2018-09-14T01:26:32.350Z,13.60
2018-09-14T01:27:35.813Z,14.80
2018-09-14T01:28:39.358Z,9.93
2018-09-14T01:29:42.921Z,11.07
2018-09-14T01:30:46.688Z,11.23
2018-09-14T01:31:50.743Z,13.00
2018-09-14T01:32:54.253Z,9.83
2018-09-14T01:33:58.126Z,11.77
2018-09-14T01:35:01.741Z,11.30
2018-09-14T01:36:11.867Z,11.80
2018-09-14T01:37:15.767Z,13.53
2018-09-14T01:38:19.280Z,12.00
2018-09-14T01:39:22.839Z,11.90
2018-09-14T01:40:26.476Z,12.10
2018-09-14T01:41:30.748Z,11.47
2018-09-14T01:42:34.257Z,10.90
2018-09-14T01:43:38.048Z,10.10
2018-09-14T01:44:41.549Z,9.47
2018-09-14T01:45:45.085Z,13.37
2018-09-14T01:46:48.630Z,12.27
2018-09-14T01:47:52.219Z,13.63
2018-09-14T01:48:55.731Z,11.07
2018-09-14T01:49:59.216Z,14.20
2018-09-14T01:51:02.811Z,12.60
2018-09-14T01:52:06.449Z,16.47
2018-09-14T01:53:09.652Z,15.23
2018-09-14T01:54:13.789Z,15.20
2018-09-14T01:55:17.353Z,12.73
2018-09-14T01:56:21.458Z,12.83
2018-09-14T01:57:25.107Z,13.40
2018-09-14T01:58:28.627Z,16.50
2018-09-14T01:59:32.175Z,12.10
2018-09-14T02:00:35.664Z,14.57
2018-09-14T02:01:39.134Z,14.23
2018-09-14T02:02:42.813Z,13.80
2018-09-14T02:03:46.438Z,15.13
2018-09-14T02:04:51.609Z,14.40
2018-09-14T02:05:55.816Z,13.73
2018-09-14T02:06:59.394Z,13.43
2018-09-14T02:08:03.045Z,12.67
2018-09-14T02:09:08.853Z,13.57
2018-09-14T02:10:16.736Z,14.03
2018-09-14T02:11:20.699Z,16.57
2018-09-14T02:12:24.193Z,11.30
2018-09-14T02:13:27.736Z,13.40
2018-09-14T02:14:31.470Z,12.63
2018-09-14T02:15:35.260Z,12.33
2018-09-14T02:16:39.049Z,19.67
2018-09-14T02:17:42.543Z,14.73
2018-09-14T02:18:46.480Z,11.47
2018-09-14T02:19:50.131Z,14.83
2018-09-14T02:20:53.632Z,11.27
2018-09-14T02:21:57.160Z,12.63
2018-09-14T02:23:00.635Z,12.80
2018-09-14T02:24:04.270Z,11.17
2018-09-14T02:25:07.973Z,12.73
2018-09-14T02:26:11.531Z,14.50
2018-09-14T02:27:15.108Z,10.90
2018-09-14T02:28:18.598Z,13.37
2018-09-14T02:29:22.153Z,11.93
2018-09-14T02:30:25.669Z,10.10
2018-09-14T02:31:29.152Z,11.73
2018-09-14T02:32:32.638Z,12.30
2018-09-14T02:33:36.158Z,12.90
2018-09-14T02:34:40.331Z,14.30
2018-09-14T02:35:44.059Z,15.33
2018-09-14T02:36:47.599Z,12.80
2018-09-14T02:37:51.868Z,16.53
2018-09-14T02:38:56.206Z,14.27
2018-09-14T02:40:00.025Z,17.33
2018-09-14T02:41:03.523Z,16.70
2018-09-14T02:42:06.969Z,16.40
2018-09-14T02:43:10.488Z,15.27
2018-09-14T02:44:14.546Z,13.20
2018-09-14T02:45:19.106Z,19.17
2018-09-14T02:46:22.655Z,14.57
2018-09-14T02:47:26.189Z,13.17
2018-09-14T02:48:29.775Z,16.77
2018-09-14T02:49:33.282Z,13.20
2018-09-14T02:50:36.805Z,13.27
2018-09-14T02:51:40.930Z,12.17
2018-09-14T02:52:44.509Z,13.77
2018-09-14T02:53:48.065Z,13.30
2018-09-14T02:54:53.209Z,13.93
2018-09-14T02:55:56.853Z,15.50
2018-09-14T02:57:00.324Z,18.03
2018-09-14T02:58:03.863Z,19.30
2018-09-14T02:59:07.387Z,19.17
2018-09-14T03:00:11.551Z,16.43
2018-09-14T03:01:14.893Z,18.10
2018-09-14T03:02:18.472Z,14.80
2018-09-14T03:03:22.119Z,21.23
2018-09-14T03:04:25.574Z,18.53
2018-09-14T03:05:30.075Z,19.27
2018-09-14T03:06:33.655Z,18.00
2018-09-14T03:07:38.532Z,17.33
2018-09-14T03:08:42.162Z,14.93
2018-09-14T03:09:45.669Z,15.73
2018-09-14T03:10:49.149Z,18.17
2018-09-14T03:11:52.759Z,23.40
2018-09-14T03:12:56.269Z,19.13
2018-09-14T03:14:00.066Z,19.67
2018-09-14T03:15:03.662Z,21.73
2018-09-14T03:16:07.279Z,18.67
2018-09-14T03:17:11.275Z,21.17
2018-09-14T03:18:14.769Z,16.70
2018-09-14T03:19:18.493Z,18.40
2018-09-14T03:20:22.119Z,18.23
2018-09-14T03:21:25.611Z,19.63
2018-09-14T03:22:29.594Z,15.67
2018-09-14T03:23:33.138Z,21.13
2018-09-14T03:24:37.682Z,20.13
2018-09-14T03:25:41.211Z,19.07
2018-09-14T03:26:44.720Z,15.97
2018-09-14T03:27:48.638Z,18.27
2018-09-14T03:28:52.163Z,14.77
2018-09-14T03:29:56.118Z,15.23
2018-09-14T03:30:59.823Z,16.07
2018-09-14T03:32:03.312Z,20.53
2018-09-14T03:33:06.813Z,19.10
2018-09-14T03:34:10.382Z,17.90
2018-09-14T03:35:13.873Z,16.33
2018-09-14T03:36:17.339Z,15.77
2018-09-14T03:37:20.828Z,16.40
2018-09-14T03:38:24.379Z,19.57
2018-09-14T03:39:28.243Z,15.20
2018-09-14T03:40:31.713Z,16.13
2018-09-14T03:41:35.196Z,19.30
2018-09-14T03:42:38.798Z,15.03
2018-09-14T03:43:42.279Z,21.67
2018-09-14T03:44:46.010Z,17.37
2018-09-14T03:45:49.777Z,17.20
2018-09-14T03:46:53.980Z,16.67
2018-09-14T03:47:57.922Z,16.83
2018-09-14T03:49:01.443Z,17.97
2018-09-14T03:50:05.093Z,15.90
2018-09-14T03:51:08.596Z,16.93
2018-09-14T03:52:12.267Z,17.77
2018-09-14T03:53:15.754Z,16.27
2018-09-14T03:54:19.329Z,17.50
2018-09-14T03:55:32.749Z,18.67
2018-09-14T03:56:36.772Z,20.57
2018-09-14T03:57:40.389Z,19.53
2018-09-14T03:58:44.074Z,14.63
2018-09-14T04:01:08.205Z,17.90
2018-09-14T04:02:12.456Z,20.03
2018-09-14T04:03:15.966Z,16.20
2018-09-14T04:04:19.561Z,20.30
2018-09-14T04:05:23.595Z,20.10
2018-09-14T04:06:27.094Z,20.80
2018-09-14T04:07:31.295Z,16.23
2018-09-14T04:08:34.860Z,17.73
2018-09-14T04:09:38.336Z,16.40
2018-09-14T04:10:41.813Z,20.77
2018-09-14T04:11:45.341Z,17.03
2018-09-14T04:12:48.884Z,18.73
2018-09-14T04:13:52.384Z,14.97
2018-09-14T04:14:56.053Z,19.00
2018-09-14T04:15:59.536Z,15.23
2018-09-14T04:17:03.077Z,19.03
2018-09-14T04:18:07.167Z,17.03
2018-09-14T04:19:11.859Z,17.90
2018-09-14T04:20:15.336Z,18.17
2018-09-14T04:21:18.874Z,17.33
2018-09-14T04:22:22.583Z,15.10
2018-09-14T04:23:26.154Z,18.27
2018-09-14T04:24:29.639Z,18.87
2018-09-14T04:25:33.181Z,16.97
2018-09-14T04:26:36.667Z,17.70
2018-09-14T04:27:40.181Z,15.20
2018-09-14T04:28:44.316Z,18.33
2018-09-14T04:29:47.885Z,20.37
2018-09-14T04:30:52.269Z,22.83
2018-09-14T04:31:56.024Z,17.00
2018-09-14T04:33:00.402Z,18.63
2018-09-14T04:34:04.063Z,19.03
2018-09-14T04:35:07.577Z,20.63
2018-09-14T04:36:11.825Z,22.57
2018-09-14T04:37:15.427Z,20.57
2018-09-14T04:38:19.104Z,22.00
2018-09-14T04:39:22.916Z,19.53
2018-09-14T04:40:26.575Z,19.57
2018-09-14T04:41:30.208Z,22.67
2018-09-14T04:42:33.878Z,21.73
2018-09-14T04:43:37.869Z,20.80
2018-09-14T04:44:41.445Z,22.30
2018-09-14T04:45:45.080Z,20.63
2018-09-14T04:46:48.521Z,20.30
2018-09-14T04:47:51.986Z,20.43
2018-09-14T04:48:55.682Z,19.87
2018-09-14T04:49:59.275Z,20.43
2018-09-14T04:51:02.757Z,21.83
2018-09-14T04:52:06.454Z,17.80
2018-09-14T04:53:10.140Z,19.20
2018-09-14T04:54:14.809Z,20.23
2018-09-14T04:55:18.291Z,16.40
2018-09-14T04:56:22.777Z,18.93
2018-09-14T04:57:26.404Z,18.83
2018-09-14T04:58:29.961Z,14.97
2018-09-14T04:59:33.751Z,19.27
2018-09-14T05:00:37.309Z,20.00
2018-09-14T05:01:41.124Z,16.73
2018-09-14T05:02:45.247Z,18.23
2018-09-14T05:03:48.768Z,19.67
2018-09-14T05:04:52.294Z,21.07
2018-09-14T05:05:55.935Z,17.43
2018-09-14T05:06:59.529Z,17.90
2018-09-14T05:08:03.163Z,20.60
2018-09-14T05:09:08.023Z,14.50
2018-09-14T05:10:11.835Z,20.23
2018-09-14T05:11:15.390Z,19.27
2018-09-14T05:12:18.991Z,18.80
2018-09-14T05:13:23.081Z,17.00
2018-09-14T05:14:26.605Z,17.73
2018-09-14T05:15:31.769Z,20.67
2018-09-14T05:16:36.193Z,16.57
2018-09-14T05:17:39.845Z,14.53
2018-09-14T05:18:43.546Z,13.77
2018-09-14T05:19:47.188Z,20.50
2018-09-14T05:20:50.812Z,16.37
2018-09-14T05:21:54.380Z,15.60
2018-09-14T05:22:58.010Z,15.97
2018-09-14T05:24:01.618Z,17.37
2018-09-14T05:25:05.185Z,18.53
2018-09-14T05:26:08.752Z,15.97
2018-09-14T05:27:12.602Z,16.37
2018-09-14T05:28:16.222Z,17.53
2018-09-14T05:29:20.077Z,15.33
2018-09-14T05:30:23.764Z,16.97
2018-09-14T05:31:27.301Z,17.20
2018-09-14T05:32:30.990Z,15.77
2018-09-14T05:33:35.432Z,16.30
2018-09-14T05:34:39.746Z,16.33
2018-09-14T05:35:43.427Z,15.17
2018-09-14T05:36:48.571Z,15.03
2018-09-14T05:37:52.236Z,17.43
2018-09-14T05:38:55.733Z,17.47
2018-09-14T05:39:59.317Z,17.87
2018-09-14T05:41:03.165Z,14.73
2018-09-14T05:42:07.128Z,20.60
2018-09-14T05:43:10.785Z,18.40
2018-09-14T05:44:14.597Z,17.33
2018-09-14T05:45:18.096Z,17.87
2018-09-14T05:46:21.555Z,15.93
2018-09-14T05:47:26.090Z,14.33
2018-09-14T05:48:29.607Z,13.80
2018-09-14T05:49:33.136Z,12.30
2018-09-14T05:50:36.811Z,12.80
2018-09-14T05:51:40.912Z,17.05
2018-09-14T05:52:44.615Z,10.70
2018-09-14T05:53:48.118Z,10.50
2018-09-14T05:54:51.672Z,10.20
2018-09-14T05:55:55.774Z,14.90
2018-09-14T05:56:59.239Z,11.63
2018-09-14T05:58:02.842Z,11.12
2018-09-14T05:59:06.683Z,9.15
2018-09-14T06:00:10.207Z,9.60
2018-09-14T06:01:14.269Z,10.65
2018-09-14T06:02:17.727Z,8.28
2018-09-14T06:03:21.331Z,6.45
2018-09-14T06:04:24.855Z,7.22
2018-09-14T06:05:28.456Z,6.67
2018-09-14T06:06:32.157Z,8.90
2018-09-14T06:07:35.844Z,8.15
2018-09-14T06:08:39.386Z,9.08
2018-09-14T06:09:43.508Z,7.28
2018-09-14T06:10:46.997Z,5.78
2018-09-14T06:11:50.594Z,7.90
2018-09-14T06:12:54.265Z,7.72
2018-09-14T06:13:58.007Z,7.20
2018-09-14T06:15:01.505Z,6.80
2018-09-14T06:16:05.171Z,6.45
2018-09-14T06:17:08.761Z,8.53
2018-09-14T06:18:12.461Z,6.45
2018-09-14T06:19:15.990Z,5.90
2018-09-14T06:20:19.545Z,7.75
2018-09-14T06:21:23.729Z,6.85
2018-09-14T06:22:27.455Z,7.35
2018-09-14T06:23:31.061Z,10.63
2018-09-14T06:24:34.563Z,6.72
2018-09-14T06:25:38.243Z,5.03
2018-09-14T06:26:41.804Z,7.70
2018-09-14T06:27:45.402Z,8.75
2018-09-14T06:28:49.277Z,5.50
2018-09-14T06:29:52.882Z,9.73
2018-09-14T06:30:56.421Z,6.60
2018-09-14T06:32:00.864Z,8.10
2018-09-14T06:33:04.597Z,9.95
2018-09-14T06:34:08.235Z,6.33
2018-09-14T06:35:11.843Z,6.15
2018-09-14T06:36:15.722Z,6.85
2018-09-14T06:37:20.700Z,6.72
2018-09-14T06:38:24.342Z,7.42
2018-09-14T06:39:27.984Z,7.03
2018-09-14T06:40:31.595Z,9.30
2018-09-14T06:41:35.568Z,6.60
2018-09-14T06:42:39.780Z,7.92
2018-09-14T06:43:43.705Z,8.33
2018-09-14T06:44:47.453Z,7.05
2018-09-14T06:45:51.917Z,11.43
2018-09-14T06:46:55.544Z,8.70
2018-09-14T06:47:59.405Z,8.28
2018-09-14T06:49:04.542Z,7.53
2018-09-14T06:50:08.158Z,9.95
2018-09-14T06:51:11.721Z,8.25
2018-09-14T06:52:17.109Z,9.70
2018-09-14T06:53:20.702Z,9.50
2018-09-14T06:54:25.112Z,10.35
2018-09-14T06:55:29.315Z,8.85
2018-09-14T06:56:33.365Z,9.70
2018-09-14T06:57:38.603Z,8.75
2018-09-14T06:58:42.462Z,7.85
2018-09-14T06:59:46.128Z,8.95
2018-09-14T07:00:50.820Z,11.05
2018-09-14T07:01:55.953Z,10.48
2018-09-14T07:03:01.134Z,7.30
2018-09-14T07:04:05.718Z,9.65
2018-09-14T07:05:09.892Z,9.68
2018-09-14T07:06:14.187Z,7.70
2018-09-14T07:07:17.767Z,11.73
2018-09-14T07:08:21.276Z,7.50
2018-09-14T07:09:25.520Z,8.73
2018-09-14T07:10:29.483Z,8.98
2018-09-14T07:11:33.018Z,11.63
2018-09-14T07:12:37.645Z,8.28
2018-09-14T07:13:41.172Z,7.80
2018-09-14T07:14:45.541Z,10.00
2018-09-14T07:15:49.323Z,11.08
2018-09-14T07:16:52.982Z,10.20
2018-09-14T07:17:58.162Z,8.75
2018-09-14T07:19:01.731Z,9.83
2018-09-14T07:20:05.437Z,9.70
2018-09-14T07:21:09.759Z,10.10
2018-09-14T07:22:13.400Z,9.03
2018-09-14T07:23:16.969Z,9.68
2018-09-14T07:24:20.553Z,7.92
2018-09-14T07:25:24.086Z,10.58
2018-09-14T07:26:27.606Z,11.10
2018-09-14T07:27:31.134Z,10.50
2018-09-14T07:28:35.375Z,7.67
2018-09-14T07:29:38.904Z,7.80
2018-09-14T07:30:42.570Z,8.55
2018-09-14T07:31:46.210Z,9.60
2018-09-14T07:32:49.658Z,7.78
2018-09-14T07:33:54.288Z,9.33
2018-09-14T07:34:57.859Z,8.40
2018-09-14T07:36:02.314Z,7.75
2018-09-14T07:37:06.990Z,7.53
2018-09-14T07:38:11.136Z,10.18
2018-09-14T07:39:16.712Z,11.00
2018-09-14T07:40:20.779Z,9.13
2018-09-14T07:41:25.294Z,10.70
2018-09-14T07:42:29.184Z,9.85
2018-09-14T07:43:33.439Z,9.13
2018-09-14T07:44:37.162Z,9.25
2018-09-14T07:45:41.482Z,10.35
2018-09-14T07:46:45.552Z,11.43
2018-09-14T07:47:49.161Z,7.80
2018-09-14T07:48:52.749Z,9.73
2018-09-14T07:49:56.512Z,9.58
2018-09-14T07:51:00.262Z,10.40
2018-09-14T07:52:04.016Z,9.75
2018-09-14T07:53:07.617Z,9.43
2018-09-14T07:54:11.274Z,10.65
2018-09-14T07:55:16.352Z,10.32
2018-09-14T07:56:20.120Z,7.87
2018-09-14T07:57:24.522Z,11.48
2018-09-14T07:58:28.029Z,8.33
2018-09-14T07:59:31.524Z,8.10
2018-09-14T08:00:35.696Z,8.03
2018-09-14T08:01:40.642Z,8.03
2018-09-14T08:02:44.334Z,9.83
2018-09-14T08:03:49.215Z,9.00
2018-09-14T08:04:53.542Z,11.93
2018-09-14T08:05:57.677Z,10.45
2018-09-14T08:07:01.176Z,8.95
2018-09-14T08:08:04.761Z,9.68
2018-09-14T08:09:11.566Z,9.95
2018-09-14T08:10:15.582Z,8.48
2018-09-14T08:11:19.338Z,8.88
2018-09-14T08:12:23.023Z,8.70
2018-09-14T08:13:26.694Z,11.90
2018-09-14T08:14:30.513Z,12.55
2018-09-14T08:15:35.096Z,10.32
2018-09-14T08:16:39.437Z,9.75
2018-09-14T08:17:42.970Z,9.88
2018-09-14T08:18:47.424Z,9.45
2018-09-14T08:19:51.346Z,8.80
2018-09-14T08:20:55.591Z,8.23
2018-09-14T08:21:59.239Z,10.32
2018-09-14T08:23:02.860Z,10.68
2018-09-14T08:24:06.756Z,8.78
2018-09-14T08:25:10.571Z,9.25
2018-09-14T08:26:14.519Z,11.53
2018-09-14T08:27:18.989Z,12.68
2018-09-14T08:28:22.497Z,11.25
2018-09-14T08:29:26.187Z,12.73
2018-09-14T08:30:30.679Z,10.38
2018-09-14T08:31:34.898Z,9.50
2018-09-14T08:32:38.685Z,12.82
2018-09-14T08:33:42.978Z,10.90
2018-09-14T08:34:47.471Z,14.30
2018-09-14T08:35:51.250Z,10.13
2018-09-14T08:36:55.539Z,13.95
2018-09-14T08:37:59.173Z,11.48
2018-09-14T08:39:04.853Z,12.18
2018-09-14T08:40:09.574Z,13.38
2018-09-14T08:41:13.212Z,12.80
2018-09-14T08:42:16.853Z,11.38
2018-09-14T08:43:20.958Z,10.78
2018-09-14T08:44:24.795Z,12.68
2018-09-14T08:45:28.406Z,12.55
2018-09-14T08:46:32.362Z,11.48
2018-09-14T08:47:36.461Z,11.20
2018-09-14T08:48:40.357Z,14.25
2018-09-14T08:49:45.248Z,12.05
2018-09-14T08:50:49.383Z,12.40
2018-09-14T08:51:52.930Z,10.13
2018-09-14T08:52:57.133Z,10.35
2018-09-14T08:54:01.194Z,13.88
2018-09-14T08:55:05.678Z,12.80
2018-09-14T08:56:09.258Z,10.82
2018-09-14T08:57:12.778Z,10.58
2018-09-14T08:58:17.053Z,9.70
2018-09-14T08:59:22.970Z,10.55
2018-09-14T09:00:27.004Z,9.58
2018-09-14T09:01:30.548Z,12.82
2018-09-14T09:02:34.190Z,11.48
2018-09-14T09:03:38.284Z,11.63
2018-09-14T09:04:43.577Z,8.58
2018-09-14T09:05:47.126Z,11.95
2018-09-14T09:06:51.623Z,10.75
2018-09-14T09:07:55.148Z,13.70
2018-09-14T09:08:59.606Z,12.10
2018-09-14T09:10:03.782Z,10.30
2018-09-14T09:11:08.787Z,10.28
2018-09-14T09:12:13.087Z,10.53
2018-09-14T09:13:16.810Z,10.08
2018-09-14T09:14:21.177Z,8.98
2018-09-14T09:15:24.779Z,8.15
2018-09-14T09:16:28.395Z,12.47
2018-09-14T09:17:32.910Z,11.00
2018-09-14T09:18:36.568Z,10.82
2018-09-14T09:19:41.933Z,10.25
2018-09-14T09:20:45.464Z,13.88
2018-09-14T09:21:49.458Z,12.60
2018-09-14T09:22:53.727Z,9.30
2018-09-14T09:23:58.164Z,9.80
2018-09-14T09:25:02.446Z,13.08
2018-09-14T09:26:07.402Z,11.35
2018-09-14T09:27:11.598Z,11.90
2018-09-14T09:28:15.264Z,10.25
2018-09-14T09:29:19.601Z,9.58
2018-09-14T09:30:23.862Z,11.40
2018-09-14T09:31:27.960Z,11.50
2018-09-14T09:32:31.707Z,9.93
2018-09-14T09:33:35.195Z,12.70
2018-09-14T09:34:39.339Z,10.68
2018-09-14T09:35:44.051Z,14.38
2018-09-14T09:36:48.367Z,11.95
2018-09-14T09:37:51.952Z,11.63
2018-09-14T09:38:55.682Z,13.53
2018-09-14T09:39:59.189Z,12.28
2018-09-14T09:41:03.836Z,15.10
2018-09-14T09:42:07.789Z,12.65
2018-09-14T09:43:11.496Z,14.78
2018-09-14T09:44:15.407Z,11.78
2018-09-14T09:45:19.729Z,13.00
2018-09-14T09:46:23.215Z,13.68
2018-09-14T09:47:26.842Z,14.65
2018-09-14T09:48:30.474Z,13.35
2018-09-14T09:49:35.497Z,15.43
2018-09-14T09:50:41.127Z,12.75
2018-09-14T09:51:45.354Z,11.05
2018-09-14T09:52:49.017Z,10.82
2018-09-14T09:53:53.259Z,11.57
2018-09-14T09:54:56.938Z,12.43
2018-09-14T09:56:01.142Z,14.10
2018-09-14T09:57:04.707Z,13.50
2018-09-14T09:58:09.263Z,13.68
2018-09-14T09:59:12.838Z,10.20
2018-09-14T10:00:21.701Z,10.98
2018-09-14T10:01:30.660Z,13.43
2018-09-14T10:02:37.536Z,10.60
2018-09-14T10:03:43.217Z,10.75
2018-09-14T10:04:52.794Z,7.97
2018-09-14T10:05:57.270Z,15.80
2018-09-14T10:07:00.767Z,9.35
2018-09-14T10:08:04.285Z,8.85
2018-09-14T10:09:09.384Z,10.60
2018-09-14T10:10:13.524Z,10.18
2018-09-14T10:11:17.614Z,9.58
2018-09-14T10:12:23.229Z,12.68
2018-09-14T10:13:27.269Z,12.95
2018-09-14T10:14:32.357Z,14.73
2018-09-14T10:15:36.036Z,14.55
2018-09-14T10:16:39.539Z,11.00
2018-09-14T10:17:43.150Z,11.18
2018-09-14T10:18:46.733Z,11.75
2018-09-14T10:19:50.354Z,13.85
2018-09-14T10:20:54.618Z,14.83
2018-09-14T10:21:58.177Z,13.88
2018-09-14T10:23:02.244Z,10.95
2018-09-14T10:24:06.935Z,13.58
2018-09-14T10:25:10.714Z,14.70
2018-09-14T10:26:14.536Z,10.98
2018-09-14T10:27:18.135Z,11.35
2018-09-14T10:28:24.426Z,13.80
2018-09-14T10:29:29.034Z,10.53
2018-09-14T10:30:33.655Z,12.65
2018-09-14T10:31:37.255Z,11.63
2018-09-14T10:32:41.877Z,12.20
2018-09-14T10:33:46.463Z,10.15
2018-09-14T10:34:50.717Z,12.85
2018-09-14T10:35:54.315Z,6.53
2018-09-14T10:36:57.992Z,9.28
2018-09-14T10:38:01.481Z,9.08
2018-09-14T10:39:08.223Z,8.73
2018-09-14T10:40:12.404Z,12.05
2018-09-14T10:41:17.016Z,12.35
2018-09-14T10:42:20.558Z,11.85
2018-09-14T10:43:24.159Z,9.28
2018-09-14T10:44:27.771Z,11.68
2018-09-14T10:45:31.443Z,9.45
2018-09-14T10:46:36.224Z,9.03
2018-09-14T10:47:39.798Z,8.13
2018-09-14T10:48:43.480Z,8.98
2018-09-14T10:49:46.954Z,10.82
2018-09-14T10:50:50.726Z,8.75
2018-09-14T10:51:54.321Z,7.40
2018-09-14T10:52:58.068Z,8.98
2018-09-14T10:54:01.811Z,8.33
2018-09-14T10:55:05.393Z,7.67
2018-09-14T10:56:09.024Z,7.33
2018-09-14T10:57:13.569Z,6.40
2018-09-14T10:58:17.209Z,9.13
2018-09-14T10:59:20.801Z,9.13
2018-09-14T11:00:24.612Z,8.08
2018-09-14T11:01:28.234Z,7.95
2018-09-14T11:02:31.766Z,7.08
2018-09-14T11:03:35.407Z,6.45
2018-09-14T11:04:38.980Z,7.30
2018-09-14T11:05:42.601Z,9.85
2018-09-14T11:06:46.272Z,8.95
2018-09-14T11:07:49.886Z,11.10
2018-09-14T11:08:53.494Z,7.90
2018-09-14T11:09:57.185Z,11.28
2018-09-14T11:11:01.371Z,9.60
2018-09-14T11:12:04.965Z,10.82
2018-09-14T11:13:08.689Z,9.23
2018-09-14T11:14:12.838Z,12.07
2018-09-14T11:15:16.507Z,8.65
2018-09-14T11:16:20.043Z,10.13
2018-09-14T11:17:23.678Z,11.40
2018-09-14T11:18:27.519Z,12.53
2018-09-14T11:19:31.038Z,11.45
2018-09-14T11:20:34.715Z,9.83
2018-09-14T11:21:38.286Z,10.38
2018-09-14T11:22:41.874Z,9.93
2018-09-14T11:23:45.538Z,10.25
2018-09-14T11:24:49.269Z,10.55
2018-09-14T11:25:52.731Z,9.23
2018-09-14T11:26:56.390Z,11.65
2018-09-14T11:27:59.995Z,11.73
2018-09-14T11:29:03.696Z,9.18
2018-09-14T11:30:08.250Z,8.70
2018-09-14T11:31:12.850Z,8.68
2018-09-14T11:32:16.484Z,10.75
2018-09-14T11:33:20.021Z,13.70
2018-09-14T11:34:23.951Z,11.45
2018-09-14T11:35:28.478Z,11.33
2018-09-14T11:36:32.147Z,12.15
2018-09-14T11:37:35.707Z,7.53
2018-09-14T11:38:39.446Z,8.88
2018-09-14T11:39:42.951Z,7.72
2018-09-14T11:40:46.697Z,12.47
2018-09-14T11:41:50.265Z,10.88
2018-09-14T11:42:53.794Z,8.93
2018-09-14T11:43:57.423Z,11.30
2018-09-14T11:45:01.095Z,7.58
2018-09-14T11:46:04.805Z,9.08
2018-09-14T11:47:08.474Z,9.65
2018-09-14T11:48:12.709Z,11.85
2018-09-14T11:49:16.286Z,10.75
2018-09-14T11:50:19.963Z,7.37
2018-09-14T11:51:23.850Z,8.53
2018-09-14T11:52:27.465Z,8.00
2018-09-14T11:53:31.141Z,8.53
2018-09-14T11:54:34.803Z,7.42
2018-09-14T11:55:38.559Z,9.00
2018-09-14T11:56:42.115Z,10.10
2018-09-14T11:57:45.878Z,11.80
2018-09-14T11:58:49.549Z,10.93
2018-09-14T11:59:53.208Z,8.25
2018-09-14T12:00:56.898Z,8.58
2018-09-14T12:02:00.849Z,9.25
2018-09-14T12:03:04.522Z,11.20
2018-09-14T12:04:08.356Z,8.58
2018-09-14T12:05:12.538Z,10.70
2018-09-14T12:06:16.147Z,10.95
2018-09-14T12:07:19.736Z,7.90
2018-09-14T12:08:23.587Z,12.47
2018-09-14T12:09:27.349Z,8.23
2018-09-14T12:10:30.987Z,7.60
2018-09-14T12:11:34.599Z,8.65
2018-09-14T12:12:38.163Z,10.08
2018-09-14T12:13:41.837Z,9.60
2018-09-14T12:14:45.446Z,10.03
2018-09-14T12:15:49.054Z,8.83
2018-09-14T12:16:52.689Z,7.62
2018-09-14T12:17:56.271Z,5.80
2018-09-14T12:18:59.868Z,6.30
2018-09-14T12:20:03.523Z,8.15
2018-09-14T12:21:07.161Z,7.20
2018-09-14T12:22:11.267Z,6.80
2018-09-14T12:23:14.969Z,8.50
2018-09-14T12:24:18.619Z,9.05
2018-09-14T12:25:22.241Z,8.90
2018-09-14T12:26:26.392Z,9.83
2018-09-14T12:27:30.079Z,9.23
2018-09-14T12:28:33.717Z,7.30
2018-09-14T12:29:38.915Z,8.68
2018-09-14T12:30:42.542Z,8.90
2018-09-14T12:31:46.134Z,9.03
2018-09-14T12:32:49.735Z,7.62
2018-09-14T12:33:53.378Z,9.45
2018-09-14T12:34:56.908Z,9.70
2018-09-14T12:36:00.587Z,9.68
2018-09-14T12:37:04.295Z,9.05
2018-09-14T12:38:08.074Z,8.08
2018-09-14T12:39:12.056Z,7.33
2018-09-14T12:40:15.642Z,11.05
2018-09-14T12:41:19.226Z,13.08
2018-09-14T12:42:22.793Z,10.38
2018-09-14T12:43:26.386Z,10.58
2018-09-14T12:44:30.011Z,10.68
2018-09-14T12:45:33.587Z,8.85
2018-09-14T12:46:37.625Z,9.90
2018-09-14T12:47:41.263Z,8.23
2018-09-14T12:48:44.890Z,9.93
2018-09-14T12:49:48.517Z,10.75
2018-09-14T12:50:52.186Z,10.10
2018-09-14T12:51:55.885Z,10.95
2018-09-14T12:53:00.432Z,11.45
2018-09-14T12:54:04.050Z,13.38
2018-09-14T12:55:07.712Z,11.18
2018-09-14T12:56:11.641Z,10.20
2018-09-14T12:57:15.391Z,10.45
2018-09-14T12:58:18.998Z,11.43
2018-09-14T12:59:35.438Z,10.28
2018-09-14T13:00:40.021Z,13.35
2018-09-14T13:01:44.400Z,13.50
2018-09-14T13:02:48.752Z,14.10
2018-09-14T13:03:52.584Z,12.18
2018-09-14T13:04:56.130Z,10.63
2018-09-14T13:06:00.247Z,11.83
2018-09-14T13:07:03.839Z,13.08
2018-09-14T13:08:07.390Z,11.75
2018-09-14T13:09:12.882Z,11.93
2018-09-14T13:10:16.434Z,9.88
2018-09-14T13:11:20.024Z,10.35
2018-09-14T13:12:24.524Z,10.03
2018-09-14T13:13:28.124Z,11.80
2018-09-14T13:14:32.037Z,13.48
2018-09-14T13:15:36.852Z,9.73
2018-09-14T13:16:41.540Z,11.18
2018-09-14T13:17:45.233Z,10.23
2018-09-14T13:18:49.365Z,9.00
2018-09-14T13:19:54.659Z,10.98
2018-09-14T13:20:58.518Z,11.10
2018-09-14T13:22:02.073Z,11.05
2018-09-14T13:23:06.361Z,12.03
2018-09-14T13:24:10.060Z,12.23
2018-09-14T13:25:14.857Z,10.82
2018-09-14T13:26:18.613Z,11.65
2018-09-14T13:27:22.326Z,12.07
2018-09-14T13:28:26.677Z,11.78
2018-09-14T13:29:30.264Z,13.62
2018-09-14T13:30:35.269Z,12.13
2018-09-14T13:31:39.662Z,13.20
2018-09-14T13:32:45.972Z,10.63
2018-09-14T13:33:51.906Z,10.90
2018-09-14T13:34:55.838Z,10.65
2018-09-14T13:35:59.398Z,11.60
2018-09-14T13:37:03.754Z,12.15
2018-09-14T13:38:07.804Z,11.90
2018-09-14T13:39:12.084Z,11.75
2018-09-14T13:40:16.049Z,8.93
2018-09-14T13:41:19.776Z,11.93
2018-09-14T13:42:23.493Z,11.03
2018-09-14T13:43:27.902Z,12.15
2018-09-14T13:44:31.485Z,10.25
2018-09-14T13:45:36.701Z,10.85
2018-09-14T13:46:40.548Z,10.35
2018-09-14T13:47:44.383Z,12.20
2018-09-14T13:48:48.294Z,10.40
2018-09-14T13:49:52.282Z,10.98
2018-09-14T13:50:56.126Z,13.20
2018-09-14T13:51:59.625Z,12.98
2018-09-14T13:53:03.271Z,11.90